sensor_id;sensor_type;location;lat;lon;timestamp;pressure;altitude;pressure_sealevel;temperature;humidity
76132;BME280;64877;50.994;13.650;2023-11-21T00:02:25;98939.81;;;9.87;100.00
76132;BME280;64877;50.994;13.650;2023-11-21T00:04:50;98942.50;;;9.87;100.00
76132;BME280;64877;50.994;13.650;2023-11-21T00:07:17;98944.09;;;9.90;100.00
76132;BME280;64877;50.994;13.650;2023-11-21T00:09:42;98941.50;;;9.88;100.00
76132;BME280;64877;50.994;13.650;2023-11-21T00:12:08;98933.41;;;9.88;100.00
76132;BME280;64877;50.994;13.650;2023-11-21T00:14:37;98937.09;;;9.87;100.00
76132;BME280;64877;50.994;13.650;2023-11-21T00:17:04;98937.56;;;9.92;100.00
76132;BME280;64877;50.994;13.650;2023-11-21T00:19:31;98935.13;;;9.89;100.00
76132;BME280;64877;50.994;13.650;2023-11-21T00:21:56;98939.16;;;9.95;100.00
76132;BME280;64877;50.994;13.650;2023-11-21T00:24:23;98940.25;;;9.92;100.00
76132;BME280;64877;50.994;13.650;2023-11-21T00:26:50;98936.31;;;9.96;100.00
76132;BME280;64877;50.994;13.650;2023-11-21T00:29:16;98937.16;;;9.97;100.00
76132;BME280;64877;50.994;13.650;2023-11-21T00:31:44;98938.03;;;9.97;100.00
76132;BME280;64877;50.994;13.650;2023-11-21T00:34:12;98938.72;;;9.99;100.00
76132;BME280;64877;50.994;13.650;2023-11-21T00:36:38;98945.13;;;9.98;100.00
76132;BME280;64877;50.994;13.650;2023-11-21T00:39:03;98955.06;;;9.98;100.00
76132;BME280;64877;50.994;13.650;2023-11-21T00:41:31;98953.94;;;10.00;100.00
76132;BME280;64877;50.994;13.650;2023-11-21T00:43:57;98956.03;;;9.97;100.00
76132;BME280;64877;50.994;13.650;2023-11-21T00:46:22;98945.66;;;9.92;100.00
76132;BME280;64877;50.994;13.650;2023-11-21T00:48:49;98956.44;;;9.92;100.00
76132;BME280;64877;50.994;13.650;2023-11-21T00:51:16;98958.69;;;9.87;100.00
76132;BME280;64877;50.994;13.650;2023-11-21T00:53:42;98955.84;;;9.89;100.00
76132;BME280;64877;50.994;13.650;2023-11-21T00:56:08;98956.69;;;9.89;100.00
76132;BME280;64877;50.994;13.650;2023-11-21T00:58:33;98956.19;;;9.95;100.00
76132;BME280;64877;50.994;13.650;2023-11-21T01:00:59;98954.47;;;9.94;100.00
76132;BME280;64877;50.994;13.650;2023-11-21T01:03:24;98958.50;;;10.00;100.00
76132;BME280;64877;50.994;13.650;2023-11-21T01:05:50;98959.84;;;9.94;100.00
76132;BME280;64877;50.994;13.650;2023-11-21T01:08:16;98960.06;;;10.02;100.00
76132;BME280;64877;50.994;13.650;2023-11-21T01:10:41;98966.44;;;10.01;100.00
76132;BME280;64877;50.994;13.650;2023-11-21T01:13:07;98974.28;;;10.04;100.00
76132;BME280;64877;50.994;13.650;2023-11-21T01:15:33;98967.34;;;10.12;99.67
76132;BME280;64877;50.994;13.650;2023-11-21T01:17:59;98981.94;;;10.09;100.00
76132;BME280;64877;50.994;13.650;2023-11-21T01:20:24;98980.13;;;10.09;99.99
76132;BME280;64877;50.994;13.650;2023-11-21T01:22:50;98973.75;;;10.10;99.67
76132;BME280;64877;50.994;13.650;2023-11-21T01:25:16;98970.31;;;10.08;99.80
76132;BME280;64877;50.994;13.650;2023-11-21T01:27:42;98977.84;;;10.05;100.00
76132;BME280;64877;50.994;13.650;2023-11-21T01:30:09;98980.63;;;10.03;100.00
76132;BME280;64877;50.994;13.650;2023-11-21T01:32:36;98970.13;;;10.00;100.00
76132;BME280;64877;50.994;13.650;2023-11-21T01:35:03;98979.94;;;10.01;100.00
76132;BME280;64877;50.994;13.650;2023-11-21T01:37:30;98972.53;;;10.03;100.00
76132;BME280;64877;50.994;13.650;2023-11-21T01:39:56;98978.94;;;10.02;100.00
76132;BME280;64877;50.994;13.650;2023-11-21T01:42:21;98971.84;;;10.01;99.66
76132;BME280;64877;50.994;13.650;2023-11-21T01:44:47;98978.34;;;9.99;100.00
76132;BME280;64877;50.994;13.650;2023-11-21T01:47:13;98969.69;;;9.95;100.00
76132;BME280;64877;50.994;13.650;2023-11-21T01:49:39;98978.47;;;9.97;100.00
76132;BME280;64877;50.994;13.650;2023-11-21T01:52:05;98969.13;;;10.01;99.95
76132;BME280;64877;50.994;13.650;2023-11-21T01:54:32;98971.59;;;10.04;100.00
76132;BME280;64877;50.994;13.650;2023-11-21T01:56:58;98977.22;;;10.01;99.38
76132;BME280;64877;50.994;13.650;2023-11-21T01:59:34;98971.97;;;10.00;99.00
76132;BME280;64877;50.994;13.650;2023-11-21T02:02:00;98965.00;;;9.97;98.73
76132;BME280;64877;50.994;13.650;2023-11-21T02:04:26;98966.97;;;9.95;99.20
76132;BME280;64877;50.994;13.650;2023-11-21T02:06:52;98974.06;;;9.96;98.76
76132;BME280;64877;50.994;13.650;2023-11-21T02:09:25;98965.06;;;9.86;98.73
76132;BME280;64877;50.994;13.650;2023-11-21T02:11:51;98970.31;;;9.88;99.02
76132;BME280;64877;50.994;13.650;2023-11-21T02:14:16;98974.88;;;9.87;99.57
76132;BME280;64877;50.994;13.650;2023-11-21T02:16:45;98975.00;;;9.86;99.27
76132;BME280;64877;50.994;13.650;2023-11-21T02:19:18;98978.56;;;9.86;98.90
76132;BME280;64877;50.994;13.650;2023-11-21T02:21:50;98988.59;;;9.84;99.27
76132;BME280;64877;50.994;13.650;2023-11-21T02:24:23;98992.56;;;9.80;98.93
76132;BME280;64877;50.994;13.650;2023-11-21T02:26:49;98990.13;;;9.77;98.95
76132;BME280;64877;50.994;13.650;2023-11-21T02:29:21;98985.59;;;9.77;98.96
76132;BME280;64877;50.994;13.650;2023-11-21T02:31:54;98982.16;;;9.75;99.08
76132;BME280;64877;50.994;13.650;2023-11-21T02:34:21;98982.75;;;9.79;98.73
76132;BME280;64877;50.994;13.650;2023-11-21T02:36:48;98989.13;;;9.78;98.78
76132;BME280;64877;50.994;13.650;2023-11-21T02:39:17;98986.72;;;9.75;98.43
76132;BME280;64877;50.994;13.650;2023-11-21T02:41:43;98988.88;;;9.81;98.76
76132;BME280;64877;50.994;13.650;2023-11-21T02:44:09;98990.13;;;9.77;98.22
76132;BME280;64877;50.994;13.650;2023-11-21T02:46:35;98980.97;;;9.68;98.93
76132;BME280;64877;50.994;13.650;2023-11-21T02:49:02;98987.94;;;9.71;98.67
76132;BME280;64877;50.994;13.650;2023-11-21T02:51:27;98991.19;;;9.65;99.22
76132;BME280;64877;50.994;13.650;2023-11-21T02:53:53;98989.72;;;9.61;99.26
76132;BME280;64877;50.994;13.650;2023-11-21T02:56:19;98982.47;;;9.61;99.41
76132;BME280;64877;50.994;13.650;2023-11-21T02:58:45;98984.19;;;9.62;99.71
76132;BME280;64877;50.994;13.650;2023-11-21T03:01:10;98993.38;;;9.59;98.97
76132;BME280;64877;50.994;13.650;2023-11-21T03:03:37;98989.72;;;9.61;100.00
76132;BME280;64877;50.994;13.650;2023-11-21T03:06:06;99001.97;;;9.65;99.18
76132;BME280;64877;50.994;13.650;2023-11-21T03:08:32;98998.66;;;9.61;99.17
76132;BME280;64877;50.994;13.650;2023-11-21T03:10:58;99002.44;;;9.58;99.25
76132;BME280;64877;50.994;13.650;2023-11-21T03:13:23;99000.28;;;9.52;99.39
76132;BME280;64877;50.994;13.650;2023-11-21T03:15:49;98999.28;;;9.53;99.35
76132;BME280;64877;50.994;13.650;2023-11-21T03:18:15;99002.13;;;9.52;99.61
76132;BME280;64877;50.994;13.650;2023-11-21T03:20:40;99004.81;;;9.52;99.93
76132;BME280;64877;50.994;13.650;2023-11-21T03:23:06;99006.19;;;9.46;100.00
76132;BME280;64877;50.994;13.650;2023-11-21T03:25:32;99000.06;;;9.44;100.00
76132;BME280;64877;50.994;13.650;2023-11-21T03:27:58;98999.19;;;9.44;100.00
76132;BME280;64877;50.994;13.650;2023-11-21T03:30:23;99007.19;;;9.45;100.00
76132;BME280;64877;50.994;13.650;2023-11-21T03:32:49;99005.34;;;9.46;99.90
76132;BME280;64877;50.994;13.650;2023-11-21T03:35:14;98998.25;;;9.45;99.49
76132;BME280;64877;50.994;13.650;2023-11-21T03:37:40;99002.75;;;9.44;99.65
76132;BME280;64877;50.994;13.650;2023-11-21T03:40:07;99005.66;;;9.52;99.38
76132;BME280;64877;50.994;13.650;2023-11-21T03:42:38;99013.16;;;9.49;98.92
76132;BME280;64877;50.994;13.650;2023-11-21T03:45:04;99006.91;;;9.48;99.16
76132;BME280;64877;50.994;13.650;2023-11-21T03:47:30;99006.34;;;9.45;99.40
76132;BME280;64877;50.994;13.650;2023-11-21T03:49:55;99010.84;;;9.44;99.17
76132;BME280;64877;50.994;13.650;2023-11-21T03:52:21;99015.13;;;9.47;99.11
76132;BME280;64877;50.994;13.650;2023-11-21T03:54:46;99007.19;;;9.45;99.16
76132;BME280;64877;50.994;13.650;2023-11-21T03:57:12;99014.53;;;9.43;99.59
76132;BME280;64877;50.994;13.650;2023-11-21T03:59:41;99012.22;;;9.39;99.42
76132;BME280;64877;50.994;13.650;2023-11-21T04:02:07;99016.75;;;9.38;99.92
76132;BME280;64877;50.994;13.650;2023-11-21T04:04:34;99013.06;;;9.39;99.49
76132;BME280;64877;50.994;13.650;2023-11-21T04:06:59;99014.06;;;9.38;99.58
76132;BME280;64877;50.994;13.650;2023-11-21T04:09:25;99005.97;;;9.38;99.47
76132;BME280;64877;50.994;13.650;2023-11-21T04:11:53;99017.03;;;9.35;99.81
76132;BME280;64877;50.994;13.650;2023-11-21T04:14:19;99018.13;;;9.32;99.98
76132;BME280;64877;50.994;13.650;2023-11-21T04:16:45;99017.50;;;9.29;100.00
76132;BME280;64877;50.994;13.650;2023-11-21T04:19:11;99022.88;;;9.29;100.00
76132;BME280;64877;50.994;13.650;2023-11-21T04:21:37;99018.25;;;9.31;100.00
76132;BME280;64877;50.994;13.650;2023-11-21T04:24:03;99019.34;;;9.28;100.00
76132;BME280;64877;50.994;13.650;2023-11-21T04:26:28;99026.06;;;9.34;100.00
76132;BME280;64877;50.994;13.650;2023-11-21T04:28:53;99029.59;;;9.35;100.00
76132;BME280;64877;50.994;13.650;2023-11-21T04:31:19;99022.97;;;9.39;99.90
76132;BME280;64877;50.994;13.650;2023-11-21T04:33:44;99030.34;;;9.37;100.00
76132;BME280;64877;50.994;13.650;2023-11-21T04:36:10;99030.97;;;9.40;99.47
76132;BME280;64877;50.994;13.650;2023-11-21T04:38:36;99030.81;;;9.42;99.41
76132;BME280;64877;50.994;13.650;2023-11-21T04:41:01;99030.69;;;9.43;99.30
76132;BME280;64877;50.994;13.650;2023-11-21T04:43:27;99037.78;;;9.44;99.71
76132;BME280;64877;50.994;13.650;2023-11-21T04:45:54;99044.31;;;9.42;99.40
76132;BME280;64877;50.994;13.650;2023-11-21T04:48:20;99047.72;;;9.44;99.38
76132;BME280;64877;50.994;13.650;2023-11-21T04:50:45;99043.94;;;9.46;99.46
76132;BME280;64877;50.994;13.650;2023-11-21T04:53:11;99051.16;;;9.46;99.74
76132;BME280;64877;50.994;13.650;2023-11-21T04:55:40;99050.31;;;9.45;99.70
76132;BME280;64877;50.994;13.650;2023-11-21T04:58:05;99047.47;;;9.47;99.47
76132;BME280;64877;50.994;13.650;2023-11-21T05:00:31;99047.34;;;9.48;99.41
76132;BME280;64877;50.994;13.650;2023-11-21T05:02:57;99050.78;;;9.50;99.61
76132;BME280;64877;50.994;13.650;2023-11-21T05:05:22;99047.22;;;9.50;98.76
76132;BME280;64877;50.994;13.650;2023-11-21T05:07:48;99041.31;;;9.56;98.01
76132;BME280;64877;50.994;13.650;2023-11-21T05:10:14;99054.91;;;9.54;98.64
76132;BME280;64877;50.994;13.650;2023-11-21T05:12:41;99054.19;;;9.52;98.69
76132;BME280;64877;50.994;13.650;2023-11-21T05:15:07;99057.22;;;9.59;98.14
76132;BME280;64877;50.994;13.650;2023-11-21T05:17:37;99060.06;;;9.57;98.81
76132;BME280;64877;50.994;13.650;2023-11-21T05:20:04;99064.59;;;9.57;98.63
76132;BME280;64877;50.994;13.650;2023-11-21T05:22:34;99069.84;;;9.58;99.05
76132;BME280;64877;50.994;13.650;2023-11-21T05:25:00;99066.28;;;9.58;98.57
76132;BME280;64877;50.994;13.650;2023-11-21T05:27:25;99077.09;;;9.58;98.70
76132;BME280;64877;50.994;13.650;2023-11-21T05:29:51;99069.84;;;9.58;98.69
76132;BME280;64877;50.994;13.650;2023-11-21T05:32:16;99068.28;;;9.56;98.04
76132;BME280;64877;50.994;13.650;2023-11-21T05:34:42;99061.28;;;9.53;98.68
76132;BME280;64877;50.994;13.650;2023-11-21T05:37:08;99068.53;;;9.53;99.24
76132;BME280;64877;50.994;13.650;2023-11-21T05:39:33;99074.75;;;9.53;98.68
76132;BME280;64877;50.994;13.650;2023-11-21T05:41:59;99071.06;;;9.54;98.88
76132;BME280;64877;50.994;13.650;2023-11-21T05:44:25;99081.16;;;9.52;98.25
76132;BME280;64877;50.994;13.650;2023-11-21T05:46:51;99076.97;;;9.48;99.03
76132;BME280;64877;50.994;13.650;2023-11-21T05:49:16;99085.53;;;9.53;98.81
76132;BME280;64877;50.994;13.650;2023-11-21T05:51:42;99088.38;;;9.52;98.78
76132;BME280;64877;50.994;13.650;2023-11-21T05:54:07;99082.00;;;9.53;98.77
76132;BME280;64877;50.994;13.650;2023-11-21T05:56:33;99089.47;;;9.49;98.71
76132;BME280;64877;50.994;13.650;2023-11-21T05:58:59;99087.75;;;9.48;99.37
76132;BME280;64877;50.994;13.650;2023-11-21T06:01:25;99083.50;;;9.46;99.38
76132;BME280;64877;50.994;13.650;2023-11-21T06:03:54;99087.66;;;9.39;99.91
76132;BME280;64877;50.994;13.650;2023-11-21T06:06:21;99087.78;;;9.37;99.94
76132;BME280;64877;50.994;13.650;2023-11-21T06:08:48;99087.31;;;9.32;99.97
76132;BME280;64877;50.994;13.650;2023-11-21T06:11:14;99094.78;;;9.28;100.00
76132;BME280;64877;50.994;13.650;2023-11-21T06:13:39;99100.31;;;9.27;100.00
76132;BME280;64877;50.994;13.650;2023-11-21T06:16:05;99102.28;;;9.25;100.00
76132;BME280;64877;50.994;13.650;2023-11-21T06:18:31;99105.56;;;9.28;100.00
76132;BME280;64877;50.994;13.650;2023-11-21T06:20:56;99108.41;;;9.27;100.00
76132;BME280;64877;50.994;13.650;2023-11-21T06:23:22;99116.25;;;9.30;100.00
76132;BME280;64877;50.994;13.650;2023-11-21T06:25:47;99110.72;;;9.31;100.00
76132;BME280;64877;50.994;13.650;2023-11-21T06:28:13;99108.25;;;9.28;100.00
76132;BME280;64877;50.994;13.650;2023-11-21T06:30:40;99107.66;;;9.25;100.00
76132;BME280;64877;50.994;13.650;2023-11-21T06:33:07;99109.63;;;9.23;100.00
76132;BME280;64877;50.994;13.650;2023-11-21T06:35:33;99115.63;;;9.26;100.00
76132;BME280;64877;50.994;13.650;2023-11-21T06:38:00;99117.31;;;9.27;100.00
76132;BME280;64877;50.994;13.650;2023-11-21T06:40:25;99117.94;;;9.31;100.00
76132;BME280;64877;50.994;13.650;2023-11-21T06:42:51;99117.44;;;9.37;99.87
76132;BME280;64877;50.994;13.650;2023-11-21T06:45:17;99117.81;;;9.32;100.00
76132;BME280;64877;50.994;13.650;2023-11-21T06:47:43;99125.75;;;9.34;99.58
76132;BME280;64877;50.994;13.650;2023-11-21T06:50:08;99127.59;;;9.33;99.86
76132;BME280;64877;50.994;13.650;2023-11-21T06:52:34;99127.47;;;9.46;100.00
76132;BME280;64877;50.994;13.650;2023-11-21T06:54:59;99123.56;;;9.50;100.00
76132;BME280;64877;50.994;13.650;2023-11-21T06:57:25;99116.91;;;9.54;100.00
76132;BME280;64877;50.994;13.650;2023-11-21T06:59:50;99120.59;;;9.53;99.42
76132;BME280;64877;50.994;13.650;2023-11-21T07:02:16;99119.84;;;9.63;100.00
76132;BME280;64877;50.994;13.650;2023-11-21T07:04:45;99118.75;;;9.65;100.00
76132;BME280;64877;50.994;13.650;2023-11-21T07:07:11;99123.47;;;9.73;99.84
76132;BME280;64877;50.994;13.650;2023-11-21T07:09:37;99132.41;;;9.73;99.41
76132;BME280;64877;50.994;13.650;2023-11-21T07:12:03;99136.59;;;9.77;100.00
76132;BME280;64877;50.994;13.650;2023-11-21T07:14:31;99138.19;;;9.80;99.47
76132;BME280;64877;50.994;13.650;2023-11-21T07:16:57;99138.66;;;9.85;98.67
76132;BME280;64877;50.994;13.650;2023-11-21T07:19:22;99145.75;;;9.86;99.99
76132;BME280;64877;50.994;13.650;2023-11-21T07:21:48;99145.50;;;9.89;99.13
76132;BME280;64877;50.994;13.650;2023-11-21T07:24:16;99142.88;;;9.99;100.00
76132;BME280;64877;50.994;13.650;2023-11-21T07:26:42;99137.63;;;9.97;99.37
76132;BME280;64877;50.994;13.650;2023-11-21T07:29:08;99147.69;;;9.95;99.00
76132;BME280;64877;50.994;13.650;2023-11-21T07:31:34;99151.13;;;9.97;99.45
76132;BME280;64877;50.994;13.650;2023-11-21T07:34:00;99155.50;;;9.98;99.86
76132;BME280;64877;50.994;13.650;2023-11-21T07:36:26;99163.59;;;9.98;99.14
76132;BME280;64877;50.994;13.650;2023-11-21T07:38:51;99161.91;;;9.97;99.38
76132;BME280;64877;50.994;13.650;2023-11-21T07:41:18;99159.72;;;9.91;97.87
76132;BME280;64877;50.994;13.650;2023-11-21T07:43:46;99159.38;;;9.84;98.65
76132;BME280;64877;50.994;13.650;2023-11-21T07:46:13;99170.06;;;9.75;99.21
76132;BME280;64877;50.994;13.650;2023-11-21T07:48:39;99175.91;;;9.91;99.73
76132;BME280;64877;50.994;13.650;2023-11-21T07:51:06;99173.44;;;9.88;99.54
76132;BME280;64877;50.994;13.650;2023-11-21T07:53:35;99174.69;;;9.84;99.76
76132;BME280;64877;50.994;13.650;2023-11-21T07:56:05;99171.78;;;9.76;100.00
76132;BME280;64877;50.994;13.650;2023-11-21T07:58:31;99177.16;;;9.76;100.00
76132;BME280;64877;50.994;13.650;2023-11-21T08:00:59;99177.16;;;9.76;100.00
76132;BME280;64877;50.994;13.650;2023-11-21T08:03:24;99181.34;;;9.80;100.00
76132;BME280;64877;50.994;13.650;2023-11-21T08:05:52;99187.09;;;9.75;100.00
76132;BME280;64877;50.994;13.650;2023-11-21T08:08:17;99184.88;;;9.80;100.00
76132;BME280;64877;50.994;13.650;2023-11-21T08:10:45;99186.59;;;9.81;100.00
76132;BME280;64877;50.994;13.650;2023-11-21T08:13:13;99187.22;;;9.85;100.00
76132;BME280;64877;50.994;13.650;2023-11-21T08:15:41;99179.59;;;9.79;100.00
76132;BME280;64877;50.994;13.650;2023-11-21T08:18:11;99180.34;;;9.81;100.00
76132;BME280;64877;50.994;13.650;2023-11-21T08:20:38;99186.34;;;9.84;100.00
76132;BME280;64877;50.994;13.650;2023-11-21T08:23:05;99189.16;;;9.83;100.00
76132;BME280;64877;50.994;13.650;2023-11-21T08:25:31;99191.59;;;9.86;100.00
76132;BME280;64877;50.994;13.650;2023-11-21T08:27:57;99190.00;;;9.83;100.00
76132;BME280;64877;50.994;13.650;2023-11-21T08:30:22;99194.91;;;9.78;100.00
76132;BME280;64877;50.994;13.650;2023-11-21T08:32:49;99191.13;;;9.81;100.00
76132;BME280;64877;50.994;13.650;2023-11-21T08:35:17;99189.81;;;9.75;100.00
76132;BME280;64877;50.994;13.650;2023-11-21T08:37:43;99188.53;;;9.79;100.00
76132;BME280;64877;50.994;13.650;2023-11-21T08:40:08;99192.59;;;9.85;100.00
76132;BME280;64877;50.994;13.650;2023-11-21T08:42:42;99189.38;;;9.91;100.00
76132;BME280;64877;50.994;13.650;2023-11-21T08:45:08;99187.69;;;9.90;100.00
76132;BME280;64877;50.994;13.650;2023-11-21T08:47:34;99184.47;;;9.96;100.00
76132;BME280;64877;50.994;13.650;2023-11-21T08:50:02;99188.53;;;9.91;100.00
76132;BME280;64877;50.994;13.650;2023-11-21T08:52:30;99193.56;;;9.95;100.00
76132;BME280;64877;50.994;13.650;2023-11-21T08:54:56;99195.00;;;9.99;100.00
76132;BME280;64877;50.994;13.650;2023-11-21T08:57:22;99194.16;;;9.88;100.00
76132;BME280;64877;50.994;13.650;2023-11-21T08:59:48;99196.25;;;9.84;100.00
76132;BME280;64877;50.994;13.650;2023-11-21T09:02:13;99193.34;;;9.76;100.00
76132;BME280;64877;50.994;13.650;2023-11-21T09:04:38;99193.84;;;9.70;100.00
76132;BME280;64877;50.994;13.650;2023-11-21T09:07:04;99204.16;;;9.65;100.00
76132;BME280;64877;50.994;13.650;2023-11-21T09:09:30;99209.78;;;9.62;100.00
76132;BME280;64877;50.994;13.650;2023-11-21T09:11:56;99217.03;;;9.61;100.00
76132;BME280;64877;50.994;13.650;2023-11-21T09:14:21;99220.22;;;9.55;100.00
76132;BME280;64877;50.994;13.650;2023-11-21T09:16:47;99221.94;;;9.45;100.00
76132;BME280;64877;50.994;13.650;2023-11-21T09:19:12;99222.78;;;9.45;100.00
76132;BME280;64877;50.994;13.650;2023-11-21T09:21:39;99225.13;;;9.50;100.00
76132;BME280;64877;50.994;13.650;2023-11-21T09:24:05;99233.22;;;9.50;100.00
76132;BME280;64877;50.994;13.650;2023-11-21T09:26:30;99231.38;;;9.50;100.00
76132;BME280;64877;50.994;13.650;2023-11-21T09:28:56;99229.13;;;9.44;100.00
76132;BME280;64877;50.994;13.650;2023-11-21T09:31:22;99227.56;;;9.42;100.00
76132;BME280;64877;50.994;13.650;2023-11-21T09:33:49;99232.81;;;9.32;100.00
76132;BME280;64877;50.994;13.650;2023-11-21T09:36:14;99242.13;;;9.28;100.00
76132;BME280;64877;50.994;13.650;2023-11-21T09:38:40;99241.28;;;9.27;100.00
76132;BME280;64877;50.994;13.650;2023-11-21T09:41:13;99238.72;;;9.26;100.00
76132;BME280;64877;50.994;13.650;2023-11-21T09:43:44;99243.38;;;9.35;100.00
76132;BME280;64877;50.994;13.650;2023-11-21T09:46:12;99240.56;;;9.37;100.00
76132;BME280;64877;50.994;13.650;2023-11-21T09:48:47;99242.88;;;9.41;100.00
76132;BME280;64877;50.994;13.650;2023-11-21T09:51:17;99249.47;;;9.48;100.00
76132;BME280;64877;50.994;13.650;2023-11-21T09:53:47;99246.28;;;9.43;100.00
76132;BME280;64877;50.994;13.650;2023-11-21T09:56:14;99249.63;;;9.36;100.00
76132;BME280;64877;50.994;13.650;2023-11-21T09:58:44;99257.31;;;9.29;100.00
76132;BME280;64877;50.994;13.650;2023-11-21T10:01:11;99259.63;;;9.22;100.00
76132;BME280;64877;50.994;13.650;2023-11-21T10:03:39;99265.88;;;9.12;100.00
76132;BME280;64877;50.994;13.650;2023-11-21T10:06:05;99276.56;;;8.89;100.00
76132;BME280;64877;50.994;13.650;2023-11-21T10:08:32;99276.22;;;8.59;100.00
76132;BME280;64877;50.994;13.650;2023-11-21T10:10:57;99278.81;;;8.36;100.00
76132;BME280;64877;50.994;13.650;2023-11-21T10:13:26;99289.03;;;8.31;100.00
76132;BME280;64877;50.994;13.650;2023-11-21T10:15:55;99294.34;;;8.20;100.00
76132;BME280;64877;50.994;13.650;2023-11-21T10:18:25;99300.16;;;8.14;100.00
76132;BME280;64877;50.994;13.650;2023-11-21T10:20:52;99301.59;;;8.07;100.00
76132;BME280;64877;50.994;13.650;2023-11-21T10:23:19;99309.56;;;7.95;100.00
76132;BME280;64877;50.994;13.650;2023-11-21T10:25:46;99307.25;;;7.91;100.00
76132;BME280;64877;50.994;13.650;2023-11-21T10:28:11;99312.50;;;7.92;100.00
76132;BME280;64877;50.994;13.650;2023-11-21T10:30:38;99308.53;;;7.85;100.00
76132;BME280;64877;50.994;13.650;2023-11-21T10:33:04;99308.72;;;7.95;100.00
76132;BME280;64877;50.994;13.650;2023-11-21T10:38:08;99320.13;;;7.98;100.00
76132;BME280;64877;50.994;13.650;2023-11-21T10:40:38;99331.09;;;7.95;100.00
76132;BME280;64877;50.994;13.650;2023-11-21T10:43:08;99332.19;;;7.93;100.00
76132;BME280;64877;50.994;13.650;2023-11-21T10:45:36;99336.41;;;7.71;100.00
76132;BME280;64877;50.994;13.650;2023-11-21T10:48:08;99334.81;;;7.56;100.00
76132;BME280;64877;50.994;13.650;2023-11-21T10:50:37;99341.03;;;7.44;100.00
76132;BME280;64877;50.994;13.650;2023-11-21T10:53:04;99342.22;;;7.40;100.00
76132;BME280;64877;50.994;13.650;2023-11-21T10:55:30;99343.50;;;7.47;100.00
76132;BME280;64877;50.994;13.650;2023-11-21T10:57:59;99347.38;;;7.56;100.00
76132;BME280;64877;50.994;13.650;2023-11-21T11:00:26;99351.88;;;7.55;100.00
76132;BME280;64877;50.994;13.650;2023-11-21T11:02:52;99352.66;;;7.57;100.00
76132;BME280;64877;50.994;13.650;2023-11-21T11:05:23;99355.97;;;7.48;100.00
76132;BME280;64877;50.994;13.650;2023-11-21T11:07:56;99353.72;;;7.42;100.00
76132;BME280;64877;50.994;13.650;2023-11-21T11:10:26;99358.34;;;7.27;100.00
76132;BME280;64877;50.994;13.650;2023-11-21T11:12:53;99370.00;;;7.13;100.00
76132;BME280;64877;50.994;13.650;2023-11-21T11:15:19;99362.81;;;7.14;100.00
76132;BME280;64877;50.994;13.650;2023-11-21T11:17:46;99375.94;;;7.18;100.00
76132;BME280;64877;50.994;13.650;2023-11-21T11:20:13;99370.63;;;7.04;100.00
76132;BME280;64877;50.994;13.650;2023-11-21T11:23:12;99369.88;;;7.02;100.00
76132;BME280;64877;50.994;13.650;2023-11-21T11:28:11;99373.50;;;7.01;100.00
76132;BME280;64877;50.994;13.650;2023-11-21T11:33:48;99379.03;;;7.12;100.00
76132;BME280;64877;50.994;13.650;2023-11-21T11:36:35;99386.63;;;7.06;100.00
76132;BME280;64877;50.994;13.650;2023-11-21T11:39:03;99386.63;;;6.93;100.00
76132;BME280;64877;50.994;13.650;2023-11-21T11:41:31;99391.66;;;6.97;100.00
76132;BME280;64877;50.994;13.650;2023-11-21T11:44:02;99391.06;;;7.07;100.00
76132;BME280;64877;50.994;13.650;2023-11-21T11:46:44;99394.44;;;6.96;100.00
76132;BME280;64877;50.994;13.650;2023-11-21T11:49:28;99395.22;;;6.71;100.00
76132;BME280;64877;50.994;13.650;2023-11-21T11:54:38;99408.81;;;6.82;100.00
76132;BME280;64877;50.994;13.650;2023-11-21T11:57:04;99409.09;;;6.78;100.00
76132;BME280;64877;50.994;13.650;2023-11-21T11:59:29;99406.28;;;6.66;100.00
76132;BME280;64877;50.994;13.650;2023-11-21T12:01:56;99404.75;;;6.62;100.00
76132;BME280;64877;50.994;13.650;2023-11-21T12:04:23;99404.22;;;6.70;100.00
76132;BME280;64877;50.994;13.650;2023-11-21T12:06:52;99401.91;;;6.78;100.00
76132;BME280;64877;50.994;13.650;2023-11-21T12:09:19;99413.34;;;6.67;100.00
76132;BME280;64877;50.994;13.650;2023-11-21T12:11:46;99413.25;;;6.69;100.00
76132;BME280;64877;50.994;13.650;2023-11-21T12:14:13;99417.88;;;6.67;100.00
76132;BME280;64877;50.994;13.650;2023-11-21T12:16:39;99418.06;;;6.64;100.00
76132;BME280;64877;50.994;13.650;2023-11-21T12:19:05;99427.63;;;6.68;100.00
76132;BME280;64877;50.994;13.650;2023-11-21T12:21:31;99432.22;;;6.66;100.00
76132;BME280;64877;50.994;13.650;2023-11-21T12:23:58;99438.56;;;6.65;100.00
76132;BME280;64877;50.994;13.650;2023-11-21T12:26:24;99433.59;;;6.59;100.00
76132;BME280;64877;50.994;13.650;2023-11-21T12:28:53;99436.13;;;6.47;100.00
76132;BME280;64877;50.994;13.650;2023-11-21T12:31:25;99440.63;;;6.47;100.00
76132;BME280;64877;50.994;13.650;2023-11-21T12:33:50;99446.63;;;6.51;100.00
76132;BME280;64877;50.994;13.650;2023-11-21T12:36:16;99438.78;;;6.62;100.00
76132;BME280;64877;50.994;13.650;2023-11-21T12:38:42;99445.84;;;6.63;100.00
76132;BME280;64877;50.994;13.650;2023-11-21T12:41:11;99441.78;;;6.70;100.00
76132;BME280;64877;50.994;13.650;2023-11-21T12:43:36;99441.19;;;6.79;100.00
76132;BME280;64877;50.994;13.650;2023-11-21T12:46:06;99441.31;;;6.78;100.00
76132;BME280;64877;50.994;13.650;2023-11-21T12:48:32;99446.16;;;6.85;100.00
76132;BME280;64877;50.994;13.650;2023-11-21T12:50:57;99442.53;;;6.86;100.00
76132;BME280;64877;50.994;13.650;2023-11-21T12:53:25;99449.88;;;6.97;100.00
76132;BME280;64877;50.994;13.650;2023-11-21T12:55:51;99449.41;;;6.90;100.00
76132;BME280;64877;50.994;13.650;2023-11-21T12:58:17;99444.81;;;6.92;100.00
76132;BME280;64877;50.994;13.650;2023-11-21T13:00:49;99462.06;;;6.88;100.00
76132;BME280;64877;50.994;13.650;2023-11-21T13:03:16;99461.88;;;6.91;100.00